Time;durP1;ratioP1;P1;durP2;ratioP2;P2;SDS_P1;SDS_P2;PMS_P1;PMS_P2;Temp;Humidity;BMP_temperature;BMP_pressure;BME280_temperature;BME280_humidity;BME280_pressure;Samples;Min_cycle;Max_cycle;Signal;HPM_P1;HPM_P2
2022/03/14 00:00:43;;;;;;;9.90;7.93;;;6.10;90.30;;;;;;5060374;28;20401;-81
2022/03/14 00:03:28;;;;;;;9.83;7.17;;;6.20;94.30;;;;;;5061374;28;20449;-81
2022/03/14 00:06:12;;;;;;;9.03;7.17;;;6.20;94.70;;;;;;5062523;28;20496;-81
2022/03/14 00:08:58;;;;;;;9.33;7.10;;;6.10;92.40;;;;;;5046622;28;20424;-81
2022/03/14 00:11:43;;;;;;;12.47;7.27;;;6.20;92.60;;;;;;5061702;28;20386;-81
2022/03/14 00:14:28;;;;;;;8.77;6.93;;;6.20;91.60;;;;;;5061347;28;20378;-81
2022/03/14 00:17:14;;;;;;;9.07;7.70;;;6.10;91.10;;;;;;5059960;28;20386;-81
2022/03/14 00:20:03;;;;;;;9.77;6.27;;;6.20;91.40;;;;;;5060876;28;20398;-81
2022/03/14 00:22:48;;;;;;;11.20;7.00;;;6.20;94.50;;;;;;5059983;28;20390;-81
2022/03/14 00:25:33;;;;;;;9.37;8.40;;;6.20;94.80;;;;;;5060873;28;20442;-81
2022/03/14 00:28:17;;;;;;;10.90;7.40;;;6.00;90.90;;;;;;5060668;28;20448;-82
2022/03/14 00:31:01;;;;;;;10.80;7.27;;;6.00;95.80;;;;;;5059885;28;20378;-81
2022/03/14 00:33:46;;;;;;;6.73;5.47;;;6.10;96.30;;;;;;5061058;28;20393;-81
2022/03/14 00:36:30;;;;;;;10.40;6.97;;;6.20;93.20;;;;;;5059855;28;20401;-80
2022/03/14 00:39:14;;;;;;;13.53;6.90;;;6.10;91.60;;;;;;5060469;28;20862;-80
2022/03/14 00:41:59;;;;;;;9.33;6.93;;;6.00;92.90;;;;;;5060898;28;20948;-81
2022/03/14 00:44:43;;;;;;;13.63;8.30;;;6.00;92.00;;;;;;5059848;28;20398;-81
2022/03/14 00:47:28;;;;;;;13.20;7.73;;;6.00;90.70;;;;;;5060735;28;20444;-79
2022/03/14 00:50:12;;;;;;;11.67;7.83;;;5.70;93.10;;;;;;5060554;28;20398;-82
2022/03/14 00:52:57;;;;;;;11.23;6.33;;;5.50;96.00;;;;;;5071052;28;20390;-81
2022/03/14 00:55:43;;;;;;;12.33;7.87;;;5.70;98.10;;;;;;5063455;28;20528;-81
2022/03/14 00:58:29;;;;;;;12.50;7.47;;;5.80;96.60;;;;;;5060245;28;20475;-81
2022/03/14 01:01:13;;;;;;;12.30;7.10;;;5.70;93.10;;;;;;5060104;28;20385;-81
2022/03/14 01:03:59;;;;;;;14.80;7.10;;;5.70;94.80;;;;;;5060319;28;20465;-81
2022/03/14 01:06:43;;;;;;;11.03;6.57;;;5.70;94.50;;;;;;5060114;28;20441;-81
2022/03/14 01:09:28;;;;;;;11.40;7.57;;;5.60;92.10;;;;;;5061578;28;20394;-81
2022/03/14 01:12:13;;;;;;;9.90;6.77;;;5.60;91.40;;;;;;5061017;28;20382;-81
2022/03/14 01:14:57;;;;;;;21.07;8.37;;;5.70;94.30;;;;;;5044809;28;20944;-82
2022/03/14 01:17:42;;;;;;;9.70;7.27;;;5.60;94.60;;;;;;5060067;28;20394;-81
2022/03/14 01:20:26;;;;;;;10.40;8.07;;;5.70;93.20;;;;;;5060586;28;20386;-81
2022/03/14 01:23:12;;;;;;;12.20;8.30;;;5.60;92.90;;;;;;5059530;28;20382;-81
2022/03/14 01:25:56;;;;;;;12.83;7.70;;;5.40;93.20;;;;;;5059920;28;20846;-81
2022/03/14 01:28:42;;;;;;;14.23;7.93;;;5.50;93.30;;;;;;5060033;28;20723;-81
2022/03/14 01:31:27;;;;;;;7.10;6.50;;;5.50;93.70;;;;;;5060234;28;20377;-81
2022/03/14 01:34:14;;;;;;;19.43;10.27;;;5.50;94.40;;;;;;5059485;28;20393;-81
2022/03/14 01:36:58;;;;;;;10.67;8.17;;;5.50;94.20;;;;;;5045469;28;20394;-81
2022/03/14 01:39:43;;;;;;;12.63;8.97;;;5.20;96.20;;;;;;5059643;28;20413;-81
2022/03/14 01:42:28;;;;;;;14.73;8.87;;;5.20;97.50;;;;;;5059894;28;20417;-81
2022/03/14 01:45:17;;;;;;;9.63;8.30;;;5.30;99.90;;;;;;5059348;28;20437;-81
2022/03/14 01:48:02;;;;;;;16.63;9.00;;;5.30;98.90;;;;;;5059204;28;20386;-81
2022/03/14 01:50:48;;;;;;;12.57;7.80;;;5.30;99.90;;;;;;5058516;28;20389;-81
2022/03/14 01:53:34;;;;;;;12.10;7.00;;;5.30;95.30;;;;;;5057734;28;20445;-81
2022/03/14 01:56:19;;;;;;;13.33;9.20;;;5.30;99.50;;;;;;5058336;28;20425;-81
2022/03/14 01:59:04;;;;;;;9.07;8.00;;;5.10;98.90;;;;;;5058580;28;20386;-81
2022/03/14 02:01:48;;;;;;;13.30;7.90;;;5.20;99.90;;;;;;5043667;28;20922;-81
2022/03/14 02:04:33;;;;;;;12.13;8.57;;;5.10;99.90;;;;;;5057848;28;20450;-81
2022/03/14 02:07:18;;;;;;;8.67;7.77;;;5.20;99.90;;;;;;5044179;28;20949;-80
2022/03/14 02:10:02;;;;;;;11.60;8.43;;;5.30;97.80;;;;;;5043445;28;20433;-81
2022/03/14 02:12:47;;;;;;;10.53;7.10;;;5.30;94.00;;;;;;5057685;28;20809;-81
2022/03/14 02:15:32;;;;;;;14.33;8.97;;;5.20;94.90;;;;;;5057685;28;20789;-81
2022/03/14 02:18:16;;;;;;;9.67;6.27;;;5.20;95.90;;;;;;5057802;28;21014;-81
2022/03/14 02:21:00;;;;;;;10.40;7.30;;;5.10;98.70;;;;;;5044364;28;20388;-81
2022/03/14 02:23:45;;;;;;;11.10;8.23;;;5.00;99.90;;;;;;5057273;28;20390;-81
2022/03/14 02:26:30;;;;;;;11.33;8.10;;;5.20;98.80;;;;;;5059642;28;20533;-81
2022/03/14 02:29:14;;;;;;;8.20;5.40;;;5.10;99.50;;;;;;5060268;28;20390;-81
2022/03/14 02:31:59;;;;;;;13.30;8.23;;;5.10;97.70;;;;;;5058953;28;20386;-82
2022/03/14 02:34:44;;;;;;;11.50;6.23;;;5.00;95.80;;;;;;5060355;28;20429;-81
2022/03/14 02:37:29;;;;;;;16.50;8.07;;;5.10;97.80;;;;;;5069731;28;20390;-79
2022/03/14 02:40:14;;;;;;;12.63;7.00;;;5.00;97.80;;;;;;5070842;28;20398;-79
2022/03/14 02:43:00;;;;;;;14.27;8.20;;;5.10;98.20;;;;;;5071369;28;20402;-79
2022/03/14 02:45:47;;;;;;;9.83;7.57;;;5.00;97.30;;;;;;5058269;28;20512;-81
2022/03/14 02:48:32;;;;;;;8.03;7.23;;;5.10;96.90;;;;;;5059172;28;20385;-81
2022/03/14 02:51:16;;;;;;;12.20;8.13;;;5.00;97.90;;;;;;5059277;28;20381;-81
2022/03/14 02:54:02;;;;;;;7.40;6.63;;;4.80;97.80;;;;;;5059356;28;20389;-81
2022/03/14 02:56:47;;;;;;;13.07;8.57;;;4.60;96.20;;;;;;5058380;28;20378;-81
2022/03/14 02:59:32;;;;;;;10.80;6.93;;;4.60;97.90;;;;;;5059227;28;20433;-81
2022/03/14 03:02:18;;;;;;;15.73;7.93;;;4.50;99.90;;;;;;5043593;28;20386;-81
2022/03/14 03:05:05;;;;;;;13.77;7.17;;;4.60;99.90;;;;;;5058787;28;20429;-80
2022/03/14 03:07:50;;;;;;;10.97;7.13;;;4.50;99.90;;;;;;5059069;28;20403;-81
2022/03/14 03:10:34;;;;;;;7.50;6.67;;;4.20;99.90;;;;;;5059404;28;20490;-82
2022/03/14 03:13:19;;;;;;;11.40;7.40;;;4.50;97.90;;;;;;5058941;28;20790;-82
2022/03/14 03:16:06;;;;;;;9.17;5.40;;;4.20;99.90;;;;;;5058398;28;20448;-80
2022/03/14 03:18:51;;;;;;;8.20;6.03;;;3.70;99.90;;;;;;5058389;28;20436;-80
2022/03/14 03:21:38;;;;;;;10.23;6.60;;;3.20;99.90;;;;;;5057841;28;20389;-80
2022/03/14 03:24:25;;;;;;;9.97;6.93;;;3.10;99.90;;;;;;5059279;28;20401;-80
2022/03/14 03:27:09;;;;;;;8.03;7.07;;;3.00;99.90;;;;;;5057334;28;20625;-81
2022/03/14 03:29:54;;;;;;;13.73;6.90;;;2.80;99.90;;;;;;5058635;28;20490;-80
2022/03/14 03:32:38;;;;;;;6.53;4.93;;;2.90;99.90;;;;;;5059194;28;20394;-80
2022/03/14 03:35:23;;;;;;;8.83;6.73;;;2.90;99.90;;;;;;5059892;28;20910;-81
2022/03/14 03:38:08;;;;;;;14.43;6.10;;;2.80;99.90;;;;;;5061804;28;20799;-81
2022/03/14 03:40:53;;;;;;;11.20;5.83;;;3.00;99.90;;;;;;5062811;28;20474;-81
2022/03/14 03:43:37;;;;;;;13.48;8.57;;;2.70;99.90;;;;;;5061399;28;20477;-81
2022/03/14 03:46:22;;;;;;;9.10;6.00;;;2.60;99.90;;;;;;5062395;28;20187;-81
2022/03/14 03:49:06;;;;;;;11.03;7.80;;;2.50;99.90;;;;;;5066059;28;20902;-80
2022/03/14 03:51:51;;;;;;;10.70;6.97;;;2.70;99.90;;;;;;5071755;28;20382;-81
2022/03/14 03:54:36;;;;;;;10.07;6.20;;;2.60;99.90;;;;;;5062438;28;20479;-81
2022/03/14 03:57:21;;;;;;;6.40;5.80;;;2.60;99.90;;;;;;5065143;28;20394;-80
2022/03/14 04:00:09;;;;;;;6.17;5.67;;;2.50;99.90;;;;;;5061679;28;20430;-80
2022/03/14 04:02:53;;;;;;;9.57;5.87;;;2.30;99.90;;;;;;5061420;28;20846;-80
2022/03/14 04:05:41;;;;;;;6.67;4.97;;;2.20;99.90;;;;;;5060865;28;20534;-81
2022/03/14 04:08:30;;;;;;;5.10;4.77;;;1.80;99.90;;;;;;5061027;28;20739;-81
2022/03/14 04:11:15;;;;;;;9.10;6.47;;;1.80;99.90;;;;;;5046173;28;20390;-81
2022/03/14 04:13:59;;;;;;;4.67;4.27;;;1.80;99.90;;;;;;5060793;28;20378;-81
2022/03/14 04:16:43;;;;;;;9.70;6.53;;;2.00;99.90;;;;;;5061474;28;20394;-81
2022/03/14 04:19:29;;;;;;;14.40;8.10;;;1.90;99.90;;;;;;5059785;28;20393;-81
2022/03/14 04:22:15;;;;;;;15.20;7.10;;;1.90;99.90;;;;;;5060756;28;20418;-81
2022/03/14 04:25:00;;;;;;;8.37;6.37;;;1.90;99.90;;;;;;5060801;28;20922;-81
2022/03/14 04:27:44;;;;;;;14.80;4.80;;;2.00;99.90;;;;;;5046139;28;20918;-81
2022/03/14 04:30:29;;;;;;;9.23;6.20;;;2.00;99.90;;;;;;5059345;28;20393;-82
2022/03/14 04:33:13;;;;;;;11.47;7.03;;;1.90;99.90;;;;;;5060945;28;20918;-81
2022/03/14 04:35:59;;;;;;;7.10;4.73;;;1.80;99.90;;;;;;5060642;28;20418;-81
2022/03/14 04:38:43;;;;;;;5.87;5.40;;;1.70;99.90;;;;;;5060368;28;20393;-81
2022/03/14 04:41:28;;;;;;;12.73;5.13;;;1.70;99.90;;;;;;5060449;28;20458;-81
2022/03/14 04:44:13;;;;;;;6.73;5.03;;;1.80;99.90;;;;;;5045777;28;20390;-81
2022/03/14 04:46:58;;;;;;;8.57;5.23;;;1.70;99.90;;;;;;5053407;28;20474;-81
2022/03/14 04:49:43;;;;;;;8.63;5.87;;;1.60;99.90;;;;;;5060680;28;20833;-81
2022/03/14 04:52:28;;;;;;;9.20;7.53;;;1.60;99.90;;;;;;5059547;28;20402;-81
2022/03/14 04:55:13;;;;;;;9.17;5.90;;;1.70;99.90;;;;;;5060806;28;20426;-81
2022/03/14 04:57:57;;;;;;;7.87;5.43;;;1.80;99.90;;;;;;5059446;28;20507;-81
2022/03/14 05:00:42;;;;;;;5.50;4.77;;;1.70;99.90;;;;;;5042969;28;20419;-81
2022/03/14 05:03:26;;;;;;;9.87;7.93;;;1.50;99.90;;;;;;5040502;28;20858;-81
2022/03/14 05:06:11;;;;;;;8.20;5.77;;;1.70;99.90;;;;;;5040984;28;20433;-81
2022/03/14 05:08:55;;;;;;;9.07;6.03;;;2.10;99.90;;;;;;5042511;28;20375;-81
2022/03/14 05:11:40;;;;;;;9.70;6.87;;;2.00;99.90;;;;;;5060611;28;20520;-81
2022/03/14 05:14:25;;;;;;;11.23;5.90;;;1.90;99.90;;;;;;5060995;28;20422;-81
2022/03/14 05:17:10;;;;;;;9.83;6.47;;;1.90;99.90;;;;;;5061014;28;20437;-81
2022/03/14 05:19:55;;;;;;;6.63;5.93;;;1.80;99.90;;;;;;5059135;28;20417;-80
2022/03/14 05:22:43;;;;;;;14.90;8.33;;;2.40;99.90;;;;;;5059303;28;20405;-80
2022/03/14 05:25:29;;;;;;;8.87;7.07;;;2.10;99.90;;;;;;5039971;28;20504;-82
2022/03/14 05:28:14;;;;;;;5.40;4.70;;;2.10;99.90;;;;;;5040406;28;20493;-81
2022/03/14 05:30:59;;;;;;;7.70;6.30;;;2.10;99.90;;;;;;5040385;28;20418;-80
2022/03/14 05:33:46;;;;;;;20.30;7.87;;;2.30;99.90;;;;;;5040137;28;20387;-81
2022/03/14 05:36:30;;;;;;;7.40;6.20;;;2.20;99.90;;;;;;5038575;28;21129;-80
2022/03/14 05:39:14;;;;;;;7.30;6.60;;;2.20;99.90;;;;;;5039333;28;20395;-81
2022/03/14 05:42:01;;;;;;;11.77;6.47;;;2.20;99.90;;;;;;5040181;28;20394;-81
2022/03/14 05:44:45;;;;;;;7.83;5.50;;;2.10;99.90;;;;;;5025189;28;20479;-82
2022/03/14 05:47:30;;;;;;;15.90;5.37;;;1.90;99.90;;;;;;5039436;28;20395;-82
2022/03/14 05:50:15;;;;;;;7.67;6.87;;;1.90;99.90;;;;;;5039427;28;20410;-82
2022/03/14 05:53:01;;;;;;;14.03;6.50;;;2.00;99.90;;;;;;5039292;28;20844;-81
2022/03/14 05:55:45;;;;;;;12.60;5.33;;;2.20;99.90;;;;;;5039939;28;20950;-84
2022/03/14 05:58:31;;;;;;;7.40;6.10;;;2.30;99.90;;;;;;5038842;28;20402;-82
2022/03/14 06:01:16;;;;;;;13.07;5.20;;;2.10;99.90;;;;;;5025998;28;20469;-82
2022/03/14 06:04:01;;;;;;;9.33;7.17;;;2.00;99.90;;;;;;5039826;28;20466;-82
2022/03/14 06:06:47;;;;;;;6.80;5.50;;;2.00;99.90;;;;;;5038723;28;21013;-81
2022/03/14 06:09:32;;;;;;;12.50;8.17;;;2.00;99.90;;;;;;5039092;28;20387;-81
2022/03/14 06:12:24;;;;;;;9.87;7.83;;;2.10;99.90;;;;;;5038387;28;20413;-81
2022/03/14 06:15:12;;;;;;;6.80;6.27;;;1.90;99.90;;;;;;5038705;28;20498;-81
2022/03/14 06:17:57;;;;;;;11.00;7.17;;;1.80;99.90;;;;;;5038438;28;20402;-82
2022/03/14 06:20:41;;;;;;;6.63;5.17;;;1.90;99.90;;;;;;5039451;28;20411;-83
2022/03/14 06:23:26;;;;;;;12.17;7.43;;;1.90;99.90;;;;;;5040865;28;20407;-82
2022/03/14 06:26:14;;;;;;;8.30;6.43;;;2.10;99.90;;;;;;5040703;28;20811;-82
2022/03/14 06:28:59;;;;;;;10.37;7.57;;;2.20;99.90;;;;;;5042787;28;20464;-83
2022/03/14 06:31:43;;;;;;;6.43;5.83;;;2.20;99.90;;;;;;5055504;28;20504;-80
2022/03/14 06:34:30;;;;;;;8.63;7.93;;;2.30;99.90;;;;;;5050094;28;20424;-82
2022/03/14 06:37:15;;;;;;;11.30;7.60;;;2.30;99.90;;;;;;5044425;28;20483;-83
2022/03/14 06:40:00;;;;;;;16.53;7.23;;;2.50;99.90;;;;;;5067078;28;20398;-81
2022/03/14 06:42:49;;;;;;;6.80;6.10;;;2.50;99.90;;;;;;5063336;28;20445;-82
2022/03/14 06:45:34;;;;;;;9.10;7.33;;;2.50;99.90;;;;;;5061794;28;20442;-81
2022/03/14 06:48:20;;;;;;;11.23;8.93;;;2.60;99.90;;;;;;5059313;28;20421;-81
2022/03/14 06:51:05;;;;;;;13.97;8.13;;;2.60;99.90;;;;;;5053188;28;20425;-81
2022/03/14 06:53:50;;;;;;;6.63;5.90;;;2.70;99.90;;;;;;5055571;28;20453;-80
2022/03/14 06:56:54;;;;;;;10.23;6.60;;;2.70;99.90;;;;;;5049148;28;20438;-80
2022/03/14 06:59:39;;;;;;;12.50;6.53;;;2.80;99.90;;;;;;5070530;28;20441;-81
2022/03/14 07:02:28;;;;;;;8.90;6.00;;;2.70;99.90;;;;;;5080250;28;20933;-81
2022/03/14 07:05:21;;;;;;;10.27;6.83;;;2.90;99.90;;;;;;5077278;28;20453;-81
2022/03/14 07:08:05;;;;;;;15.27;9.27;;;3.30;99.90;;;;;;5074612;28;20439;-82
2022/03/14 07:10:50;;;;;;;18.13;8.40;;;3.30;99.90;;;;;;5083358;28;20447;-81
2022/03/14 07:13:34;;;;;;;22.63;8.93;;;3.00;99.90;;;;;;5078627;28;20417;-81
2022/03/14 07:16:19;;;;;;;15.10;8.30;;;3.00;99.90;;;;;;5064684;28;21222;-80
2022/03/14 07:19:04;;;;;;;15.40;8.93;;;3.30;99.90;;;;;;5079904;28;20452;-81
2022/03/14 07:21:48;;;;;;;10.03;6.60;;;3.10;99.90;;;;;;5081920;28;20432;-82
2022/03/14 07:24:32;;;;;;;11.67;8.30;;;3.10;99.90;;;;;;5085054;28;21075;-80
2022/03/14 07:27:16;;;;;;;12.27;9.10;;;3.10;99.90;;;;;;5079908;28;20452;-80
2022/03/14 07:30:02;;;;;;;16.53;8.23;;;3.10;99.90;;;;;;5068988;28;20485;-82
2022/03/14 07:32:47;;;;;;;13.23;8.70;;;2.80;99.90;;;;;;5052837;28;20434;-81
2022/03/14 07:35:32;;;;;;;14.20;6.47;;;2.70;99.90;;;;;;5052928;28;20513;-82
2022/03/14 07:38:16;;;;;;;9.53;8.53;;;2.70;99.90;;;;;;5055646;28;20428;-82
2022/03/14 07:41:01;;;;;;;9.43;8.10;;;2.70;99.90;;;;;;5052783;28;20442;-82
2022/03/14 07:43:45;;;;;;;13.40;8.97;;;2.80;99.90;;;;;;5052265;28;20516;-82
2022/03/14 07:46:31;;;;;;;10.93;7.97;;;2.60;99.90;;;;;;5056589;28;20504;-82
2022/03/14 07:49:16;;;;;;;15.43;8.17;;;2.60;99.90;;;;;;5052403;28;20409;-82
2022/03/14 07:52:00;;;;;;;9.33;7.23;;;2.80;99.90;;;;;;5054945;28;20456;-81
2022/03/14 07:54:44;;;;;;;23.77;10.00;;;2.90;99.90;;;;;;5044758;28;20440;-80
2022/03/14 07:57:30;;;;;;;13.50;9.27;;;3.10;99.90;;;;;;5045684;28;20477;-81
2022/03/14 08:00:18;;;;;;;8.43;7.60;;;2.90;99.90;;;;;;5049992;28;20445;-79
2022/03/14 08:03:04;;;;;;;12.37;8.10;;;2.60;99.90;;;;;;5077723;28;20492;-79
2022/03/14 08:05:51;;;;;;;10.27;8.43;;;2.70;99.90;;;;;;5059759;28;21004;-81
2022/03/14 08:08:36;;;;;;;11.37;6.90;;;2.80;99.90;;;;;;5053570;28;20442;-80
2022/03/14 08:11:22;;;;;;;10.17;7.17;;;2.90;99.90;;;;;;5064922;28;20429;-80
2022/03/14 08:14:07;;;;;;;7.77;6.83;;;2.90;99.90;;;;;;5052404;28;20483;-80
2022/03/14 08:16:52;;;;;;;14.27;8.23;;;2.90;99.90;;;;;;5054424;28;20430;-80
2022/03/14 08:19:37;;;;;;;14.00;9.10;;;2.90;99.90;;;;;;5051213;28;20430;-80
2022/03/14 08:22:22;;;;;;;11.20;7.23;;;3.00;99.90;;;;;;5059131;28;20437;-80
2022/03/14 08:25:07;;;;;;;14.17;8.73;;;3.00;99.90;;;;;;5064749;28;20395;-79
2022/03/14 08:27:52;;;;;;;12.80;8.00;;;3.00;99.90;;;;;;5061617;28;20503;-79
2022/03/14 08:30:38;;;;;;;14.23;9.00;;;3.10;99.90;;;;;;5050405;28;20958;-80
2022/03/14 08:33:24;;;;;;;8.80;7.80;;;3.00;99.90;;;;;;5054681;28;20406;-79
2022/03/14 08:36:09;;;;;;;14.37;9.43;;;3.10;99.90;;;;;;5057810;28;20418;-80
2022/03/14 08:38:54;;;;;;;10.90;7.30;;;3.20;99.90;;;;;;5059198;28;20429;-81
2022/03/14 08:41:40;;;;;;;6.70;6.07;;;3.30;99.90;;;;;;5064744;28;20452;-80
2022/03/14 08:44:25;;;;;;;13.93;8.83;;;3.30;99.90;;;;;;5053943;28;20961;-80
2022/03/14 08:47:11;;;;;;;23.00;8.77;;;3.30;99.90;;;;;;5063793;28;20461;-80
2022/03/14 08:49:55;;;;;;;15.30;9.10;;;3.50;99.90;;;;;;5058064;28;20433;-80
2022/03/14 08:52:40;;;;;;;20.03;10.00;;;3.70;99.90;;;;;;5064500;28;20422;-80
2022/03/14 08:55:25;;;;;;;14.37;9.13;;;3.80;99.90;;;;;;5054464;28;20481;-80
2022/03/14 08:58:09;;;;;;;12.63;8.27;;;3.90;99.90;;;;;;5050182;28;20454;-80
2022/03/14 09:00:54;;;;;;;12.97;9.00;;;4.00;99.90;;;;;;5052854;28;20446;-80
2022/03/14 09:03:38;;;;;;;13.23;11.23;;;4.30;99.90;;;;;;5055517;28;20477;-80
2022/03/14 09:06:24;;;;;;;15.00;9.93;;;4.40;99.90;;;;;;5055753;28;20470;-80
2022/03/14 09:09:08;;;;;;;10.70;8.40;;;4.40;99.90;;;;;;5057810;28;20477;-80
2022/03/14 09:11:53;;;;;;;12.63;8.83;;;4.60;99.90;;;;;;5064468;28;20476;-80
2022/03/14 09:14:37;;;;;;;12.80;10.17;;;4.50;99.90;;;;;;5059858;28;20417;-80
2022/03/14 09:17:24;;;;;;;18.40;9.67;;;4.80;99.90;;;;;;5055407;28;20414;-79
2022/03/14 09:20:09;;;;;;;13.80;8.40;;;4.90;99.90;;;;;;5052378;28;20421;-79
2022/03/14 09:22:54;;;;;;;9.20;8.17;;;5.10;99.90;;;;;;5054639;28;20943;-80
2022/03/14 09:25:39;;;;;;;10.20;8.67;;;5.20;99.90;;;;;;5060403;28;20544;-81
2022/03/14 09:28:23;;;;;;;13.93;10.30;;;5.50;99.90;;;;;;5050839;28;20415;-79
2022/03/14 09:31:09;;;;;;;12.43;8.20;;;5.60;99.90;;;;;;5073785;28;20727;-79
2022/03/14 09:33:54;;;;;;;13.90;9.60;;;5.80;99.90;;;;;;5063321;28;20429;-80
2022/03/14 09:36:38;;;;;;;14.53;8.57;;;5.90;99.90;;;;;;5058571;28;20445;-79
2022/03/14 09:39:23;;;;;;;13.57;9.63;;;5.90;99.90;;;;;;5062848;28;20441;-80
2022/03/14 09:42:12;;;;;;;9.17;8.13;;;6.10;99.90;;;;;;5059611;28;20457;-78
2022/03/14 09:44:59;;;;;;;18.83;9.60;;;6.40;99.90;;;;;;5061017;28;20437;-81
2022/03/14 09:47:46;;;;;;;12.97;9.20;;;6.40;99.90;;;;;;5050132;28;20766;-80
2022/03/14 09:50:35;;;;;;;18.27;10.90;;;6.50;99.90;;;;;;5059302;28;20926;-80
2022/03/14 09:53:20;;;;;;;11.20;8.83;;;6.70;99.90;;;;;;5057854;28;20440;-80
2022/03/14 09:56:05;;;;;;;14.00;9.70;;;6.90;99.90;;;;;;5062297;28;20461;-80
2022/03/14 09:58:49;;;;;;;9.40;7.93;;;7.00;99.90;;;;;;5060691;28;20434;-80
2022/03/14 10:01:36;;;;;;;9.60;7.87;;;6.90;99.90;;;;;;5060247;28;20992;-80
2022/03/14 10:04:20;;;;;;;13.77;9.57;;;7.00;99.90;;;;;;5063013;28;20468;-80
2022/03/14 10:07:06;;;;;;;11.50;9.60;;;7.00;99.90;;;;;;5059703;28;20637;-80
2022/03/14 10:09:51;;;;;;;12.83;9.60;;;6.90;99.90;;;;;;5058390;28;20409;-80
2022/03/14 10:12:36;;;;;;;12.20;8.30;;;7.10;99.90;;;;;;5062728;28;20441;-80
2022/03/14 10:15:22;;;;;;;17.43;11.30;;;7.30;99.90;;;;;;5055772;28;20856;-79
2022/03/14 10:18:18;;;;;;;19.63;10.73;;;7.10;99.90;;;;;;5059089;28;20933;-80
2022/03/14 10:21:06;;;;;;;12.70;8.47;;;7.00;99.90;;;;;;5054494;28;20474;-80
2022/03/14 10:23:50;;;;;;;13.63;10.37;;;7.00;99.90;;;;;;5055395;28;20434;-79
2022/03/14 10:26:37;;;;;;;11.50;8.87;;;7.00;99.90;;;;;;5058951;28;20937;-79
2022/03/14 10:29:25;;;;;;;15.77;9.67;;;7.10;99.90;;;;;;5062748;28;20425;-80
2022/03/14 10:32:30;;;;;;;15.77;10.37;;;7.10;99.90;;;;;;5064354;28;20476;-80
2022/03/14 10:35:20;;;;;;;22.10;12.20;;;7.00;99.90;;;;;;5066201;28;20410;-80
2022/03/14 10:38:08;;;;;;;14.63;9.90;;;7.10;99.90;;;;;;5061888;28;20430;-80
2022/03/14 10:40:56;;;;;;;11.17;8.03;;;7.30;99.90;;;;;;5054681;28;20427;-79
2022/03/14 10:43:42;;;;;;;7.77;5.20;;;7.40;99.90;;;;;;5061641;28;20433;-80
2022/03/14 10:46:27;;;;;;;7.40;4.20;;;7.60;99.90;;;;;;5060300;28;20619;-79
2022/03/14 10:49:11;;;;;;;4.37;3.80;;;7.70;99.90;;;;;;5050524;28;20489;-80
2022/03/14 10:51:59;;;;;;;9.77;3.50;;;7.90;99.90;;;;;;5055086;28;21136;-80
2022/03/14 10:54:44;;;;;;;2.57;2.33;;;7.90;99.90;;;;;;5048449;28;20487;-80
2022/03/14 10:57:31;;;;;;;4.40;3.30;;;8.00;99.90;;;;;;5054643;28;20442;-79
2022/03/14 11:00:15;;;;;;;5.53;3.23;;;7.90;99.90;;;;;;5048817;28;20492;-80
2022/03/14 11:03:03;;;;;;;5.17;4.10;;;7.80;99.90;;;;;;5050099;28;20464;-80
2022/03/14 11:05:48;;;;;;;4.93;2.70;;;8.10;99.90;;;;;;5048434;28;20890;-78
2022/03/14 11:08:37;;;;;;;2.83;2.63;;;8.00;99.90;;;;;;5052996;28;20465;-79
2022/03/14 11:11:22;;;;;;;12.97;3.53;;;8.00;99.90;;;;;;5049226;28;20464;-79
2022/03/14 11:14:12;;;;;;;2.80;2.60;;;8.00;99.90;;;;;;5051049;28;20484;-80
2022/03/14 11:17:10;;;;;;;3.67;2.30;;;8.10;99.90;;;;;;5046586;28;20528;-80
2022/03/14 11:19:56;;;;;;;6.43;3.47;;;8.20;99.90;;;;;;5049043;28;20508;-81
2022/03/14 11:22:42;;;;;;;3.20;2.23;;;8.10;99.90;;;;;;5045755;28;20555;-80
2022/03/14 11:25:26;;;;;;;3.90;2.33;;;8.00;99.90;;;;;;5043509;28;21004;-78
2022/03/14 11:28:18;;;;;;;8.20;2.47;;;8.00;99.90;;;;;;5055901;28;20478;-80
2022/03/14 11:31:02;;;;;;;5.63;2.50;;;8.00;99.90;;;;;;5055456;28;20866;-81
2022/03/14 11:33:48;;;;;;;2.23;2.03;;;8.10;99.90;;;;;;5051898;28;20454;-79
2022/03/14 11:36:34;;;;;;;6.63;3.40;;;8.00;99.90;;;;;;5052512;28;20433;-79
2022/03/14 11:39:20;;;;;;;7.73;1.90;;;7.70;99.90;;;;;;5049246;28;20418;-79
2022/03/14 11:42:05;;;;;;;5.90;2.63;;;7.80;99.90;;;;;;5031203;28;20437;-78
2022/03/14 11:44:50;;;;;;;2.93;2.40;;;7.80;99.90;;;;;;5063978;28;20508;-78
2022/03/14 11:47:36;;;;;;;10.43;3.13;;;7.90;99.90;;;;;;5047075;28;20457;-78
2022/03/14 11:50:22;;;;;;;3.17;2.40;;;7.80;99.90;;;;;;5044581;28;20461;-80
2022/03/14 11:53:06;;;;;;;9.93;2.40;;;8.10;99.90;;;;;;5043528;28;20493;-82
2022/03/14 11:55:55;;;;;;;5.20;3.20;;;8.30;99.90;;;;;;5047385;28;20596;-81
2022/03/14 11:58:51;;;;;;;7.97;2.70;;;8.10;99.90;;;;;;5044692;28;20429;-79
2022/03/14 12:01:48;;;;;;;6.10;3.00;;;8.30;99.90;;;;;;5043381;28;20418;-80
2022/03/14 12:04:36;;;;;;;3.80;2.20;;;8.40;99.90;;;;;;5046304;28;20488;-80
2022/03/14 12:07:29;;;;;;;7.03;2.80;;;8.70;99.90;;;;;;5045212;28;21011;-79
2022/03/14 12:10:30;;;;;;;4.10;2.50;;;8.90;99.90;;;;;;5049782;28;20517;-79
2022/03/14 12:13:43;;;;;;;5.93;2.13;;;9.00;99.90;;;;;;5037378;28;20781;-80
2022/03/14 12:16:37;;;;;;;2.20;2.00;;;9.10;99.90;;;;;;5044356;28;20488;-80
2022/03/14 12:19:31;;;;;;;4.90;3.73;;;9.20;99.90;;;;;;5030963;28;20441;-80
2022/03/14 12:22:35;;;;;;;4.43;2.40;;;8.80;99.90;;;;;;5046076;28;20736;-81
2022/03/14 12:25:41;;;;;;;4.10;2.47;;;8.90;99.90;;;;;;5046717;28;20417;-80
2022/03/14 12:28:41;;;;;;;5.60;3.07;;;8.90;99.90;;;;;;5051228;28;20565;-79
2022/03/14 12:31:26;;;;;;;4.30;2.73;;;8.90;99.90;;;;;;5051517;28;20441;-80
2022/03/14 12:34:10;;;;;;;3.93;2.13;;;8.80;99.90;;;;;;5044581;28;20438;-80
2022/03/14 12:36:55;;;;;;;6.13;2.90;;;8.90;99.90;;;;;;5049266;28;20847;-80
2022/03/14 12:39:40;;;;;;;20.73;3.47;;;8.90;99.90;;;;;;5041321;28;20964;-80
2022/03/14 12:42:25;;;;;;;7.73;3.50;;;8.90;99.90;;;;;;5047733;28;20429;-80
2022/03/14 12:45:15;;;;;;;7.90;3.03;;;8.60;99.90;;;;;;5040058;28;20536;-80
2022/03/14 12:48:12;;;;;;;14.97;4.10;;;8.60;99.90;;;;;;5040555;28;20473;-82
2022/03/14 12:51:06;;;;;;;8.00;3.60;;;8.60;99.90;;;;;;5040859;28;20534;-80
2022/03/14 12:53:57;;;;;;;4.30;3.83;;;8.70;99.90;;;;;;5040092;28;20434;-80
2022/03/14 12:56:43;;;;;;;3.50;2.87;;;8.70;99.90;;;;;;5044466;28;20456;-80
2022/03/14 12:59:30;;;;;;;7.33;2.97;;;8.50;99.90;;;;;;5045908;28;20488;-81
2022/03/14 13:02:25;;;;;;;9.30;4.60;;;8.50;99.90;;;;;;5042894;28;20476;-82
2022/03/14 13:05:09;;;;;;;3.77;3.27;;;8.50;99.90;;;;;;5049303;28;20509;-82
2022/03/14 13:08:02;;;;;;;7.43;5.27;;;8.60;99.90;;;;;;5064278;28;20772;-81
2022/03/14 13:10:52;;;;;;;5.80;3.80;;;8.70;99.90;;;;;;5050283;28;20453;-81
2022/03/14 13:13:38;;;;;;;7.17;4.10;;;8.90;99.90;;;;;;5043996;28;20480;-79
2022/03/14 13:16:28;;;;;;;6.83;2.73;;;9.00;99.90;;;;;;5039142;28;20398;-79
2022/03/14 13:19:18;;;;;;;11.37;5.20;;;8.80;99.90;;;;;;5043829;28;20425;-79
2022/03/14 13:22:15;;;;;;;9.63;2.90;;;8.60;99.90;;;;;;5042243;28;20419;-78
2022/03/14 13:25:00;;;;;;;3.90;3.30;;;8.80;99.90;;;;;;5043029;28;20426;-81
2022/03/14 13:27:52;;;;;;;4.53;3.43;;;9.00;99.90;;;;;;5041505;28;20988;-79
2022/03/14 13:30:45;;;;;;;6.73;3.97;;;9.40;99.90;;;;;;5045341;28;20411;-80
2022/03/14 13:33:33;;;;;;;6.80;3.50;;;10.10;99.90;;;;;;5046256;28;20424;-80
2022/03/14 13:36:19;;;;;;;6.37;4.10;;;10.20;99.90;;;;;;5043810;28;20740;-81
2022/03/14 13:39:04;;;;;;;13.63;3.30;;;10.00;99.90;;;;;;5038448;28;20453;-80
2022/03/14 13:41:49;;;;;;;7.10;4.00;;;9.90;99.90;;;;;;5041225;28;20552;-81
2022/03/14 13:44:33;;;;;;;4.40;3.00;;;9.80;99.90;;;;;;5041181;28;20438;-81
2022/03/14 13:47:22;;;;;;;7.13;2.93;;;10.00;99.90;;;;;;5043948;28;20454;-79
2022/03/14 13:50:07;;;;;;;4.73;3.77;;;10.00;99.90;;;;;;5049753;28;20512;-81
2022/03/14 13:52:53;;;;;;;3.50;3.03;;;9.90;99.90;;;;;;5051267;28;20806;-81
2022/03/14 13:55:37;;;;;;;2.77;2.50;;;10.00;99.90;;;;;;5042986;28;20472;-80
2022/03/14 13:58:25;;;;;;;5.40;3.30;;;9.70;99.90;;;;;;5027602;28;20804;-81
2022/03/14 14:01:09;;;;;;;4.17;3.40;;;9.90;99.90;;;;;;5045607;28;20464;-81
2022/03/14 14:03:54;;;;;;;4.20;3.37;;;10.30;99.90;;;;;;5043338;28;20511;-81
2022/03/14 14:06:45;;;;;;;14.20;3.50;;;10.50;99.90;;;;;;5045041;28;20500;-79
2022/03/14 14:09:38;;;;;;;5.03;2.43;;;10.50;99.90;;;;;;5043458;28;20406;-78
2022/03/14 14:12:26;;;;;;;3.20;2.60;;;10.90;99.90;;;;;;5043034;28;20442;-78
2022/03/14 14:15:11;;;;;;;5.73;3.33;;;11.00;99.90;;;;;;5045164;28;20542;-80
2022/03/14 14:17:56;;;;;;;6.53;2.50;;;10.70;99.90;;;;;;5041567;28;20563;-80
2022/03/14 14:20:41;;;;;;;4.80;3.83;;;11.00;99.90;;;;;;5041682;28;20549;-80
2022/03/14 14:23:28;;;;;;;3.73;2.83;;;11.20;99.90;;;;;;5038088;28;20944;-79
2022/03/14 14:26:13;;;;;;;3.60;3.20;;;11.10;99.90;;;;;;5040742;28;20519;-80
2022/03/14 14:28:58;;;;;;;5.15;2.80;;;11.50;99.90;;;;;;5049350;28;20434;-81